sensor_id;sensor_type;location;lat;lon;timestamp;temperature;humidity
24730;DHT22;12832;52.392;13.066;2023-04-01T00:01:00;25.30;38.10
24730;DHT22;12832;52.392;13.066;2023-04-01T00:03:27;25.30;38.10
24730;DHT22;12832;52.392;13.066;2023-04-01T00:05:55;25.30;38.10
24730;DHT22;12832;52.392;13.066;2023-04-01T00:08:22;25.30;38.10
24730;DHT22;12832;52.392;13.066;2023-04-01T00:10:49;25.30;38.10
24730;DHT22;12832;52.392;13.066;2023-04-01T00:13:16;25.30;38.10
24730;DHT22;12832;52.392;13.066;2023-04-01T00:15:42;25.30;38.10
24730;DHT22;12832;52.392;13.066;2023-04-01T00:18:09;25.20;38.00
24730;DHT22;12832;52.392;13.066;2023-04-01T00:20:35;25.30;38.10
24730;DHT22;12832;52.392;13.066;2023-04-01T00:23:02;25.30;38.10
24730;DHT22;12832;52.392;13.066;2023-04-01T00:25:28;25.30;38.10
24730;DHT22;12832;52.392;13.066;2023-04-01T00:27:55;25.30;38.10
24730;DHT22;12832;52.392;13.066;2023-04-01T00:30:21;25.30;38.10
24730;DHT22;12832;52.392;13.066;2023-04-01T00:32:50;25.30;38.10
24730;DHT22;12832;52.392;13.066;2023-04-01T00:35:17;25.30;38.10
24730;DHT22;12832;52.392;13.066;2023-04-01T00:37:43;25.30;38.10
24730;DHT22;12832;52.392;13.066;2023-04-01T00:40:24;25.30;38.10
24730;DHT22;12832;52.392;13.066;2023-04-01T00:42:51;25.30;38.10
24730;DHT22;12832;52.392;13.066;2023-04-01T00:47:56;25.30;38.10
24730;DHT22;12832;52.392;13.066;2023-04-01T00:50:25;25.30;38.10
24730;DHT22;12832;52.392;13.066;2023-04-01T00:52:52;25.30;38.10
24730;DHT22;12832;52.392;13.066;2023-04-01T00:55:20;25.30;38.10
24730;DHT22;12832;52.392;13.066;2023-04-01T00:57:48;25.30;38.00
24730;DHT22;12832;52.392;13.066;2023-04-01T01:00:16;25.30;38.00
24730;DHT22;12832;52.392;13.066;2023-04-01T01:02:44;25.30;38.00
24730;DHT22;12832;52.392;13.066;2023-04-01T01:05:14;25.30;38.00
24730;DHT22;12832;52.392;13.066;2023-04-01T01:08:20;25.30;38.10
24730;DHT22;12832;52.392;13.066;2023-04-01T01:10:50;25.30;38.00
24730;DHT22;12832;52.392;13.066;2023-04-01T01:13:45;25.30;38.00
24730;DHT22;12832;52.392;13.066;2023-04-01T01:16:30;25.30;38.00
24730;DHT22;12832;52.392;13.066;2023-04-01T01:19:20;25.30;38.00
24730;DHT22;12832;52.392;13.066;2023-04-01T01:21:55;25.30;38.00
24730;DHT22;12832;52.392;13.066;2023-04-01T01:24:36;25.30;38.00
24730;DHT22;12832;52.392;13.066;2023-04-01T01:27:14;25.30;38.00
24730;DHT22;12832;52.392;13.066;2023-04-01T01:35:33;25.40;38.00
24730;DHT22;12832;52.392;13.066;2023-04-01T01:38:19;25.30;38.00
24730;DHT22;12832;52.392;13.066;2023-04-01T01:40:50;25.30;38.00
24730;DHT22;12832;52.392;13.066;2023-04-01T01:43:24;25.30;38.00
24730;DHT22;12832;52.392;13.066;2023-04-01T01:45:54;25.30;38.00
24730;DHT22;12832;52.392;13.066;2023-04-01T01:48:23;25.30;38.00
24730;DHT22;12832;52.392;13.066;2023-04-01T01:50:51;25.30;38.00
24730;DHT22;12832;52.392;13.066;2023-04-01T01:53:17;25.30;37.90
24730;DHT22;12832;52.392;13.066;2023-04-01T01:55:45;25.40;38.00
24730;DHT22;12832;52.392;13.066;2023-04-01T01:58:22;25.30;38.00
24730;DHT22;12832;52.392;13.066;2023-04-01T02:00:53;25.40;38.00
24730;DHT22;12832;52.392;13.066;2023-04-01T02:03:22;25.30;37.90
24730;DHT22;12832;52.392;13.066;2023-04-01T02:05:51;25.30;37.90
24730;DHT22;12832;52.392;13.066;2023-04-01T02:08:22;25.30;37.90
24730;DHT22;12832;52.392;13.066;2023-04-01T02:11:04;25.40;37.90
24730;DHT22;12832;52.392;13.066;2023-04-01T02:13:38;25.40;38.00
24730;DHT22;12832;52.392;13.066;2023-04-01T02:16:12;25.40;38.00
24730;DHT22;12832;52.392;13.066;2023-04-01T02:18:41;25.40;38.00
24730;DHT22;12832;52.392;13.066;2023-04-01T02:21:09;25.30;37.90
24730;DHT22;12832;52.392;13.066;2023-04-01T02:23:36;25.30;37.90
24730;DHT22;12832;52.392;13.066;2023-04-01T02:26:07;25.30;37.90
24730;DHT22;12832;52.392;13.066;2023-04-01T02:28:34;25.30;37.90
24730;DHT22;12832;52.392;13.066;2023-04-01T02:31:03;25.40;37.90
24730;DHT22;12832;52.392;13.066;2023-04-01T02:33:30;25.30;37.90
24730;DHT22;12832;52.392;13.066;2023-04-01T02:35:58;25.30;37.90
24730;DHT22;12832;52.392;13.066;2023-04-01T02:38:25;25.30;37.90
24730;DHT22;12832;52.392;13.066;2023-04-01T02:40:57;25.30;37.90
24730;DHT22;12832;52.392;13.066;2023-04-01T02:43:23;25.30;37.90
24730;DHT22;12832;52.392;13.066;2023-04-01T02:45:50;25.40;37.90
24730;DHT22;12832;52.392;13.066;2023-04-01T02:48:16;25.30;37.80
24730;DHT22;12832;52.392;13.066;2023-04-01T02:50:42;25.30;37.90
24730;DHT22;12832;52.392;13.066;2023-04-01T02:53:08;25.30;37.80
24730;DHT22;12832;52.392;13.066;2023-04-01T02:55:35;25.30;37.80
24730;DHT22;12832;52.392;13.066;2023-04-01T02:58:01;25.30;37.80
24730;DHT22;12832;52.392;13.066;2023-04-01T03:00:28;25.40;37.90
24730;DHT22;12832;52.392;13.066;2023-04-01T03:02:54;25.30;37.90
24730;DHT22;12832;52.392;13.066;2023-04-01T03:05:20;25.40;37.90
24730;DHT22;12832;52.392;13.066;2023-04-01T03:07:47;25.30;37.80
24730;DHT22;12832;52.392;13.066;2023-04-01T03:10:13;25.40;37.90
24730;DHT22;12832;52.392;13.066;2023-04-01T03:12:40;25.40;37.90
24730;DHT22;12832;52.392;13.066;2023-04-01T03:15:06;25.30;37.80
24730;DHT22;12832;52.392;13.066;2023-04-01T03:17:40;25.30;37.80
24730;DHT22;12832;52.392;13.066;2023-04-01T03:20:07;25.40;37.90
24730;DHT22;12832;52.392;13.066;2023-04-01T03:22:34;25.30;37.90
24730;DHT22;12832;52.392;13.066;2023-04-01T03:25:02;25.40;37.90
24730;DHT22;12832;52.392;13.066;2023-04-01T03:27:28;25.40;37.90
24730;DHT22;12832;52.392;13.066;2023-04-01T03:29:54;25.40;37.90
24730;DHT22;12832;52.392;13.066;2023-04-01T03:32:21;25.30;37.80
24730;DHT22;12832;52.392;13.066;2023-04-01T03:34:47;25.30;37.90
24730;DHT22;12832;52.392;13.066;2023-04-01T03:37:13;25.30;37.90
24730;DHT22;12832;52.392;13.066;2023-04-01T03:39:39;25.40;38.60
24730;DHT22;12832;52.392;13.066;2023-04-01T03:42:07;25.40;37.90
24730;DHT22;12832;52.392;13.066;2023-04-01T03:44:33;25.40;37.90
24730;DHT22;12832;52.392;13.066;2023-04-01T03:47:00;25.30;37.90
24730;DHT22;12832;52.392;13.066;2023-04-01T03:49:26;25.40;37.90
24730;DHT22;12832;52.392;13.066;2023-04-01T03:51:52;25.30;37.80
24730;DHT22;12832;52.392;13.066;2023-04-01T03:54:18;25.30;37.80
24730;DHT22;12832;52.392;13.066;2023-04-01T03:56:46;25.40;37.90
24730;DHT22;12832;52.392;13.066;2023-04-01T03:59:12;25.40;37.90
24730;DHT22;12832;52.392;13.066;2023-04-01T04:01:38;25.30;37.80
24730;DHT22;12832;52.392;13.066;2023-04-01T04:04:05;25.40;37.90
24730;DHT22;12832;52.392;13.066;2023-04-01T04:06:32;25.40;37.90
24730;DHT22;12832;52.392;13.066;2023-04-01T04:08:58;25.40;37.90
24730;DHT22;12832;52.392;13.066;2023-04-01T04:11:25;25.40;37.90
24730;DHT22;12832;52.392;13.066;2023-04-01T04:13:51;25.40;37.90
24730;DHT22;12832;52.392;13.066;2023-04-01T04:16:19;25.40;37.90
24730;DHT22;12832;52.392;13.066;2023-04-01T04:18:45;25.40;37.90
24730;DHT22;12832;52.392;13.066;2023-04-01T04:21:13;25.40;37.90
24730;DHT22;12832;52.392;13.066;2023-04-01T04:23:40;25.40;37.90
24730;DHT22;12832;52.392;13.066;2023-04-01T04:26:10;25.40;37.90
24730;DHT22;12832;52.392;13.066;2023-04-01T04:28:36;25.40;37.90
24730;DHT22;12832;52.392;13.066;2023-04-01T04:31:03;25.40;37.90
24730;DHT22;12832;52.392;13.066;2023-04-01T04:33:31;25.40;37.90
24730;DHT22;12832;52.392;13.066;2023-04-01T04:35:58;25.30;37.80
24730;DHT22;12832;52.392;13.066;2023-04-01T04:38:25;25.30;37.80
24730;DHT22;12832;52.392;13.066;2023-04-01T04:40:51;25.40;37.90
24730;DHT22;12832;52.392;13.066;2023-04-01T04:43:18;25.40;37.90
24730;DHT22;12832;52.392;13.066;2023-04-01T04:45:44;25.40;37.90
24730;DHT22;12832;52.392;13.066;2023-04-01T04:48:15;25.40;37.90
24730;DHT22;12832;52.392;13.066;2023-04-01T04:50:45;25.40;37.90
24730;DHT22;12832;52.392;13.066;2023-04-01T04:53:12;25.40;37.90
24730;DHT22;12832;52.392;13.066;2023-04-01T04:55:43;25.40;37.90
24730;DHT22;12832;52.392;13.066;2023-04-01T04:58:10;25.40;37.90
24730;DHT22;12832;52.392;13.066;2023-04-01T05:00:36;25.40;37.90
24730;DHT22;12832;52.392;13.066;2023-04-01T05:03:02;25.40;37.90
24730;DHT22;12832;52.392;13.066;2023-04-01T05:05:28;25.40;37.90
24730;DHT22;12832;52.392;13.066;2023-04-01T05:07:54;25.40;37.90
24730;DHT22;12832;52.392;13.066;2023-04-01T05:10:20;25.30;37.90
24730;DHT22;12832;52.392;13.066;2023-04-01T05:12:46;25.40;37.90
24730;DHT22;12832;52.392;13.066;2023-04-01T05:15:13;25.40;37.90
24730;DHT22;12832;52.392;13.066;2023-04-01T05:17:39;25.40;37.90
24730;DHT22;12832;52.392;13.066;2023-04-01T05:20:06;25.40;37.90
24730;DHT22;12832;52.392;13.066;2023-04-01T05:22:33;25.40;37.90
24730;DHT22;12832;52.392;13.066;2023-04-01T05:24:59;25.40;37.90
24730;DHT22;12832;52.392;13.066;2023-04-01T05:27:25;25.40;37.90
24730;DHT22;12832;52.392;13.066;2023-04-01T05:29:52;25.40;37.90
24730;DHT22;12832;52.392;13.066;2023-04-01T05:32:18;25.40;37.90
24730;DHT22;12832;52.392;13.066;2023-04-01T05:34:44;25.40;37.90
24730;DHT22;12832;52.392;13.066;2023-04-01T05:37:10;25.40;37.90
24730;DHT22;12832;52.392;13.066;2023-04-01T05:39:38;25.40;37.90
24730;DHT22;12832;52.392;13.066;2023-04-01T05:42:06;25.40;37.90
24730;DHT22;12832;52.392;13.066;2023-04-01T05:44:34;25.40;37.90
24730;DHT22;12832;52.392;13.066;2023-04-01T05:47:00;25.40;37.90
24730;DHT22;12832;52.392;13.066;2023-04-01T05:49:26;25.40;37.90
24730;DHT22;12832;52.392;13.066;2023-04-01T05:51:54;25.40;37.90
24730;DHT22;12832;52.392;13.066;2023-04-01T05:54:21;25.40;37.90
24730;DHT22;12832;52.392;13.066;2023-04-01T05:56:47;25.40;37.80
24730;DHT22;12832;52.392;13.066;2023-04-01T05:59:14;25.40;37.90
24730;DHT22;12832;52.392;13.066;2023-04-01T06:01:41;25.40;37.90
24730;DHT22;12832;52.392;13.066;2023-04-01T06:04:14;25.40;37.90
24730;DHT22;12832;52.392;13.066;2023-04-01T06:06:41;25.40;37.80
24730;DHT22;12832;52.392;13.066;2023-04-01T06:09:14;25.40;37.90
24730;DHT22;12832;52.392;13.066;2023-04-01T06:14:44;25.40;37.80
24730;DHT22;12832;52.392;13.066;2023-04-01T06:20:13;25.40;37.80
24730;DHT22;12832;52.392;13.066;2023-04-01T06:23:04;25.40;37.90
24730;DHT22;12832;52.392;13.066;2023-04-01T06:28:46;25.40;37.80
24730;DHT22;12832;52.392;13.066;2023-04-01T06:31:51;25.40;37.90
24730;DHT22;12832;52.392;13.066;2023-04-01T06:34:54;25.40;37.90
24730;DHT22;12832;52.392;13.066;2023-04-01T06:37:39;25.40;37.90
24730;DHT22;12832;52.392;13.066;2023-04-01T06:40:37;25.40;37.90
24730;DHT22;12832;52.392;13.066;2023-04-01T06:46:36;25.40;37.90
24730;DHT22;12832;52.392;13.066;2023-04-01T06:52:00;25.40;37.90
24730;DHT22;12832;52.392;13.066;2023-04-01T06:54:36;25.40;37.80
24730;DHT22;12832;52.392;13.066;2023-04-01T06:57:24;25.40;37.80
24730;DHT22;12832;52.392;13.066;2023-04-01T06:59:54;25.40;37.80
24730;DHT22;12832;52.392;13.066;2023-04-01T07:02:41;25.40;37.80
24730;DHT22;12832;52.392;13.066;2023-04-01T07:05:11;25.40;37.80
24730;DHT22;12832;52.392;13.066;2023-04-01T07:07:43;25.40;37.80
24730;DHT22;12832;52.392;13.066;2023-04-01T07:10:17;25.50;37.80
24730;DHT22;12832;52.392;13.066;2023-04-01T07:12:47;25.50;37.80
24730;DHT22;12832;52.392;13.066;2023-04-01T07:15:26;25.40;37.80
24730;DHT22;12832;52.392;13.066;2023-04-01T07:18:09;25.40;37.80
24730;DHT22;12832;52.392;13.066;2023-04-01T07:20:37;25.50;37.80
24730;DHT22;12832;52.392;13.066;2023-04-01T07:23:23;25.40;37.80
24730;DHT22;12832;52.392;13.066;2023-04-01T07:26:01;25.50;37.80
24730;DHT22;12832;52.392;13.066;2023-04-01T07:28:31;25.50;37.80
24730;DHT22;12832;52.392;13.066;2023-04-01T07:34:39;25.40;37.70
24730;DHT22;12832;52.392;13.066;2023-04-01T07:40:02;25.40;37.70
24730;DHT22;12832;52.392;13.066;2023-04-01T07:51:38;25.40;37.80
24730;DHT22;12832;52.392;13.066;2023-04-01T07:57:20;25.40;37.80
24730;DHT22;12832;52.392;13.066;2023-04-01T07:59:54;25.40;37.70
24730;DHT22;12832;52.392;13.066;2023-04-01T08:05:23;25.40;37.80
24730;DHT22;12832;52.392;13.066;2023-04-01T08:18:51;25.50;37.80
24730;DHT22;12832;52.392;13.066;2023-04-01T08:21:41;25.50;37.80
24730;DHT22;12832;52.392;13.066;2023-04-01T08:27:03;25.40;37.70
24730;DHT22;12832;52.392;13.066;2023-04-01T08:29:53;25.40;37.70
24730;DHT22;12832;52.392;13.066;2023-04-01T08:32:35;25.40;37.70
24730;DHT22;12832;52.392;13.066;2023-04-01T08:35:20;25.50;37.80
24730;DHT22;12832;52.392;13.066;2023-04-01T08:37:48;25.40;37.70
24730;DHT22;12832;52.392;13.066;2023-04-01T08:43:33;25.50;37.70
24730;DHT22;12832;52.392;13.066;2023-04-01T08:54:46;25.40;37.70
24730;DHT22;12832;52.392;13.066;2023-04-01T09:01:14;25.50;37.80
24730;DHT22;12832;52.392;13.066;2023-04-01T09:04:05;25.50;37.80
24730;DHT22;12832;52.392;13.066;2023-04-01T09:06:56;25.50;37.70
24730;DHT22;12832;52.392;13.066;2023-04-01T09:09:33;25.50;37.70
24730;DHT22;12832;52.392;13.066;2023-04-01T09:18:20;25.50;37.70
24730;DHT22;12832;52.392;13.066;2023-04-01T09:20:58;25.50;37.70
24730;DHT22;12832;52.392;13.066;2023-04-01T09:23:47;25.50;37.70
24730;DHT22;12832;52.392;13.066;2023-04-01T09:26:24;25.50;37.70
24730;DHT22;12832;52.392;13.066;2023-04-01T09:32:04;25.50;37.70
24730;DHT22;12832;52.392;13.066;2023-04-01T09:35:02;25.40;37.70
24730;DHT22;12832;52.392;13.066;2023-04-01T09:40:17;25.50;37.70
24730;DHT22;12832;52.392;13.066;2023-04-01T09:43:22;25.50;37.70
24730;DHT22;12832;52.392;13.066;2023-04-01T09:46:10;25.50;37.70
24730;DHT22;12832;52.392;13.066;2023-04-01T09:57:12;25.50;37.70
24730;DHT22;12832;52.392;13.066;2023-04-01T09:59:47;25.50;37.70
24730;DHT22;12832;52.392;13.066;2023-04-01T10:16:03;25.50;37.60
24730;DHT22;12832;52.392;13.066;2023-04-01T10:24:52;25.50;37.70
24730;DHT22;12832;52.392;13.066;2023-04-01T10:30:29;25.50;37.70
24730;DHT22;12832;52.392;13.066;2023-04-01T10:36:31;25.50;37.60
24730;DHT22;12832;52.392;13.066;2023-04-01T10:42:00;25.50;37.70
24730;DHT22;12832;52.392;13.066;2023-04-01T10:56:56;25.50;37.70
24730;DHT22;12832;52.392;13.066;2023-04-01T11:08:15;25.50;37.70
24730;DHT22;12832;52.392;13.066;2023-04-01T11:19:12;25.50;37.70
24730;DHT22;12832;52.392;13.066;2023-04-01T11:21:59;25.50;37.70
24730;DHT22;12832;52.392;13.066;2023-04-01T11:25:00;25.50;37.70
24730;DHT22;12832;52.392;13.066;2023-04-01T11:33:31;25.50;37.70
24730;DHT22;12832;52.392;13.066;2023-04-01T11:39:01;25.50;37.70
24730;DHT22;12832;52.392;13.066;2023-04-01T11:44:20;25.50;37.70
24730;DHT22;12832;52.392;13.066;2023-04-01T11:47:07;25.50;37.70
24730;DHT22;12832;52.392;13.066;2023-04-01T11:49:40;25.50;37.70
24730;DHT22;12832;52.392;13.066;2023-04-01T11:52:38;25.50;37.70
24730;DHT22;12832;52.392;13.066;2023-04-01T11:58:33;25.50;37.70
24730;DHT22;12832;52.392;13.066;2023-04-01T12:15:13;25.50;37.70
24730;DHT22;12832;52.392;13.066;2023-04-01T12:18:26;25.50;37.70
24730;DHT22;12832;52.392;13.066;2023-04-01T12:21:17;25.50;37.70
24730;DHT22;12832;52.392;13.066;2023-04-01T12:27:05;25.50;37.60
24730;DHT22;12832;52.392;13.066;2023-04-01T12:30:14;25.50;37.70
24730;DHT22;12832;52.392;13.066;2023-04-01T12:33:26;25.50;37.60
24730;DHT22;12832;52.392;13.066;2023-04-01T12:41:19;25.50;37.70
24730;DHT22;12832;52.392;13.066;2023-04-01T12:44:26;25.50;37.60
24730;DHT22;12832;52.392;13.066;2023-04-01T12:47:09;25.50;37.60
24730;DHT22;12832;52.392;13.066;2023-04-01T12:50:16;25.50;37.60
24730;DHT22;12832;52.392;13.066;2023-04-01T12:53:11;25.50;37.70
24730;DHT22;12832;52.392;13.066;2023-04-01T12:55:44;25.50;37.60
24730;DHT22;12832;52.392;13.066;2023-04-01T13:03:46;25.50;37.70
24730;DHT22;12832;52.392;13.066;2023-04-01T13:12:26;25.50;37.60
24730;DHT22;12832;52.392;13.066;2023-04-01T13:15:10;25.50;37.60
24730;DHT22;12832;52.392;13.066;2023-04-01T13:17:53;25.50;37.60
24730;DHT22;12832;52.392;13.066;2023-04-01T13:20:34;25.50;37.60
24730;DHT22;12832;52.392;13.066;2023-04-01T13:23:19;25.50;37.70
24730;DHT22;12832;52.392;13.066;2023-04-01T13:28:52;25.50;37.60
24730;DHT22;12832;52.392;13.066;2023-04-01T13:34:27;25.50;37.60
24730;DHT22;12832;52.392;13.066;2023-04-01T13:37:05;25.50;37.60
24730;DHT22;12832;52.392;13.066;2023-04-01T13:39:57;25.50;37.70
24730;DHT22;12832;52.392;13.066;2023-04-01T13:42:37;25.50;37.60
24730;DHT22;12832;52.392;13.066;2023-04-01T13:45:51;25.50;37.60
24730;DHT22;12832;52.392;13.066;2023-04-01T13:51:13;25.50;37.70
24730;DHT22;12832;52.392;13.066;2023-04-01T13:56:34;25.50;38.30
24730;DHT22;12832;52.392;13.066;2023-04-01T13:59:11;25.50;37.60
24730;DHT22;12832;52.392;13.066;2023-04-01T14:01:54;25.50;37.60
24730;DHT22;12832;52.392;13.066;2023-04-01T14:04:53;25.50;37.60
24730;DHT22;12832;52.392;13.066;2023-04-01T14:10:34;25.50;37.70
24730;DHT22;12832;52.392;13.066;2023-04-01T14:32:54;25.50;37.70
24730;DHT22;12832;52.392;13.066;2023-04-01T14:38:16;25.50;37.60
24730;DHT22;12832;52.392;13.066;2023-04-01T14:43:47;25.50;37.70
24730;DHT22;12832;52.392;13.066;2023-04-01T14:49:30;25.50;37.60
24730;DHT22;12832;52.392;13.066;2023-04-01T14:52:05;25.50;37.60
24730;DHT22;12832;52.392;13.066;2023-04-01T14:54:37;25.50;37.60
24730;DHT22;12832;52.392;13.066;2023-04-01T14:57:20;25.50;37.70
24730;DHT22;12832;52.392;13.066;2023-04-01T15:02:51;25.50;37.60
24730;DHT22;12832;52.392;13.066;2023-04-01T15:05:32;25.50;37.60
24730;DHT22;12832;52.392;13.066;2023-04-01T15:08:18;25.50;37.70
24730;DHT22;12832;52.392;13.066;2023-04-01T15:10:53;25.50;37.60
24730;DHT22;12832;52.392;13.066;2023-04-01T15:13:38;25.50;37.60
24730;DHT22;12832;52.392;13.066;2023-04-01T15:16:18;25.50;37.60
24730;DHT22;12832;52.392;13.066;2023-04-01T15:30:00;25.50;37.60
24730;DHT22;12832;52.392;13.066;2023-04-01T15:32:44;25.50;37.60
24730;DHT22;12832;52.392;13.066;2023-04-01T15:35:25;25.50;37.60
24730;DHT22;12832;52.392;13.066;2023-04-01T15:38:06;25.50;37.60
24730;DHT22;12832;52.392;13.066;2023-04-01T15:43:36;25.50;37.60
24730;DHT22;12832;52.392;13.066;2023-04-01T15:46:44;25.50;37.60
24730;DHT22;12832;52.392;13.066;2023-04-01T15:55:07;25.50;37.50
24730;DHT22;12832;52.392;13.066;2023-04-01T16:00:47;25.50;37.50
24730;DHT22;12832;52.392;13.066;2023-04-01T16:08:58;25.50;37.50
24730;DHT22;12832;52.392;13.066;2023-04-01T16:20:41;25.50;37.40
24730;DHT22;12832;52.392;13.066;2023-04-01T16:23:27;25.50;37.40
24730;DHT22;12832;52.392;13.066;2023-04-01T16:26:07;25.40;37.30
24730;DHT22;12832;52.392;13.066;2023-04-01T16:28:50;25.50;37.30
24730;DHT22;12832;52.392;13.066;2023-04-01T16:31:43;25.50;37.30
24730;DHT22;12832;52.392;13.066;2023-04-01T16:34:25;25.50;37.30
24730;DHT22;12832;52.392;13.066;2023-04-01T16:37:00;25.50;37.30
24730;DHT22;12832;52.392;13.066;2023-04-01T16:39:43;25.50;37.20
24730;DHT22;12832;52.392;13.066;2023-04-01T16:42:26;25.40;37.20
24730;DHT22;12832;52.392;13.066;2023-04-01T16:45:30;25.50;37.20
24730;DHT22;12832;52.392;13.066;2023-04-01T16:48:15;25.50;37.20
24730;DHT22;12832;52.392;13.066;2023-04-01T16:50:53;25.50;37.20
24730;DHT22;12832;52.392;13.066;2023-04-01T16:53:49;25.40;37.10
24730;DHT22;12832;52.392;13.066;2023-04-01T16:56:36;25.50;37.20
24730;DHT22;12832;52.392;13.066;2023-04-01T16:59:14;25.40;37.10
24730;DHT22;12832;52.392;13.066;2023-04-01T17:02:00;25.50;37.20
24730;DHT22;12832;52.392;13.066;2023-04-01T17:04:39;25.40;36.60
24730;DHT22;12832;52.392;13.066;2023-04-01T17:07:23;25.40;36.60
24730;DHT22;12832;52.392;13.066;2023-04-01T17:15:35;25.40;36.80
24730;DHT22;12832;52.392;13.066;2023-04-01T17:21:07;25.50;36.80
24730;DHT22;12832;52.392;13.066;2023-04-01T17:23:51;25.50;37.50
24730;DHT22;12832;52.392;13.066;2023-04-01T17:26:40;25.40;36.80
24730;DHT22;12832;52.392;13.066;2023-04-01T17:29:26;25.40;36.80
24730;DHT22;12832;52.392;13.066;2023-04-01T17:32:04;25.40;36.90
24730;DHT22;12832;52.392;13.066;2023-04-01T17:37:43;25.40;36.90
24730;DHT22;12832;52.392;13.066;2023-04-01T17:41:28;25.40;36.90
24730;DHT22;12832;52.392;13.066;2023-04-01T17:46:23;25.40;36.90
24730;DHT22;12832;52.392;13.066;2023-04-01T17:49:26;25.40;37.00
24730;DHT22;12832;52.392;13.066;2023-04-01T17:55:17;25.40;36.90
24730;DHT22;12832;52.392;13.066;2023-04-01T17:57:56;25.40;36.90
24730;DHT22;12832;52.392;13.066;2023-04-01T18:00:36;25.40;36.90
24730;DHT22;12832;52.392;13.066;2023-04-01T18:06:05;25.40;36.90
24730;DHT22;12832;52.392;13.066;2023-04-01T18:19:09;25.50;37.00
24730;DHT22;12832;52.392;13.066;2023-04-01T18:21:47;25.50;37.00
24730;DHT22;12832;52.392;13.066;2023-04-01T18:24:19;25.50;37.00
24730;DHT22;12832;52.392;13.066;2023-04-01T18:27:11;25.50;37.00
24730;DHT22;12832;52.392;13.066;2023-04-01T18:35:21;25.40;37.00
24730;DHT22;12832;52.392;13.066;2023-04-01T18:38:03;25.50;37.00
24730;DHT22;12832;52.392;13.066;2023-04-01T18:40:35;25.40;37.00
24730;DHT22;12832;52.392;13.066;2023-04-01T18:47:13;25.40;37.00
24730;DHT22;12832;52.392;13.066;2023-04-01T18:49:21;25.40;37.00
24730;DHT22;12832;52.392;13.066;2023-04-01T18:52:02;25.40;37.00
24730;DHT22;12832;52.392;13.066;2023-04-01T18:54:45;25.40;37.00
24730;DHT22;12832;52.392;13.066;2023-04-01T18:57:15;25.50;37.10
24730;DHT22;12832;52.392;13.066;2023-04-01T18:59:46;25.50;37.10
24730;DHT22;12832;52.392;13.066;2023-04-01T19:02:27;25.50;37.00
24730;DHT22;12832;52.392;13.066;2023-04-01T19:05:13;25.50;37.00
24730;DHT22;12832;52.392;13.066;2023-04-01T19:07:47;25.50;37.00
24730;DHT22;12832;52.392;13.066;2023-04-01T19:26:12;25.40;37.00
24730;DHT22;12832;52.392;13.066;2023-04-01T19:29:02;25.50;37.00
24730;DHT22;12832;52.392;13.066;2023-04-01T19:36:58;25.50;37.00
24730;DHT22;12832;52.392;13.066;2023-04-01T19:42:30;25.50;37.10
24730;DHT22;12832;52.392;13.066;2023-04-01T19:48:29;25.50;37.00
24730;DHT22;12832;52.392;13.066;2023-04-01T19:51:19;25.50;37.00
24730;DHT22;12832;52.392;13.066;2023-04-01T19:54:44;25.50;37.00
24730;DHT22;12832;52.392;13.066;2023-04-01T19:57:16;25.50;37.00
24730;DHT22;12832;52.392;13.066;2023-04-01T20:05:39;25.50;37.00
24730;DHT22;12832;52.392;13.066;2023-04-01T20:08:32;25.50;37.00
24730;DHT22;12832;52.392;13.066;2023-04-01T20:11:18;25.50;37.10
24730;DHT22;12832;52.392;13.066;2023-04-01T20:24:51;25.50;37.00
24730;DHT22;12832;52.392;13.066;2023-04-01T20:27:26;25.50;37.00
24730;DHT22;12832;52.392;13.066;2023-04-01T20:35:45;25.50;37.00
24730;DHT22;12832;52.392;13.066;2023-04-01T20:38:52;25.50;37.00
24730;DHT22;12832;52.392;13.066;2023-04-01T20:41:40;25.50;37.00
24730;DHT22;12832;52.392;13.066;2023-04-01T20:52:41;25.40;37.00
24730;DHT22;12832;52.392;13.066;2023-04-01T21:00:52;25.40;37.00
24730;DHT22;12832;52.392;13.066;2023-04-01T21:08:45;25.50;37.00
24730;DHT22;12832;52.392;13.066;2023-04-01T21:13:56;25.40;37.00
24730;DHT22;12832;52.392;13.066;2023-04-01T21:19:32;25.50;37.00
24730;DHT22;12832;52.392;13.066;2023-04-01T21:25:01;25.50;37.00
24730;DHT22;12832;52.392;13.066;2023-04-01T21:27:42;25.50;37.00
24730;DHT22;12832;52.392;13.066;2023-04-01T21:30:26;25.40;37.00
24730;DHT22;12832;52.392;13.066;2023-04-01T21:47:49;25.40;37.00
24730;DHT22;12832;52.392;13.066;2023-04-01T22:05:15;25.50;37.10
24730;DHT22;12832;52.392;13.066;2023-04-01T22:07:57;25.50;37.00
24730;DHT22;12832;52.392;13.066;2023-04-01T22:10:34;25.50;37.00
24730;DHT22;12832;52.392;13.066;2023-04-01T22:13:17;25.50;37.00
24730;DHT22;12832;52.392;13.066;2023-04-01T22:21:44;25.50;37.00
24730;DHT22;12832;52.392;13.066;2023-04-01T22:24:37;25.50;37.00
24730;DHT22;12832;52.392;13.066;2023-04-01T22:27:39;25.50;37.00
24730;DHT22;12832;52.392;13.066;2023-04-01T22:30:23;25.50;36.90
24730;DHT22;12832;52.392;13.066;2023-04-01T22:32:57;25.50;36.90
24730;DHT22;12832;52.392;13.066;2023-04-01T22:41:01;25.40;36.90
24730;DHT22;12832;52.392;13.066;2023-04-01T22:43:38;25.40;37.00
24730;DHT22;12832;52.392;13.066;2023-04-01T22:49:22;25.50;37.00
24730;DHT22;12832;52.392;13.066;2023-04-01T22:52:30;25.40;36.90
24730;DHT22;12832;52.392;13.066;2023-04-01T22:55:08;25.50;37.00
24730;DHT22;12832;52.392;13.066;2023-04-01T22:58:05;25.50;37.00
24730;DHT22;12832;52.392;13.066;2023-04-01T23:00:48;25.50;37.00
24730;DHT22;12832;52.392;13.066;2023-04-01T23:03:30;25.50;36.90
24730;DHT22;12832;52.392;13.066;2023-04-01T23:06:03;25.50;37.00
24730;DHT22;12832;52.392;13.066;2023-04-01T23:11:30;25.50;37.00
24730;DHT22;12832;52.392;13.066;2023-04-01T23:16:50;25.50;37.00
24730;DHT22;12832;52.392;13.066;2023-04-01T23:19:29;25.50;37.00
24730;DHT22;12832;52.392;13.066;2023-04-01T23:22:33;25.50;37.00
24730;DHT22;12832;52.392;13.066;2023-04-01T23:25:30;25.50;37.00
24730;DHT22;12832;52.392;13.066;2023-04-01T23:35:53;25.50;36.90
24730;DHT22;12832;52.392;13.066;2023-04-01T23:38:25;25.50;37.60
24730;DHT22;12832;52.392;13.066;2023-04-01T23:40:53;25.50;36.90
24730;DHT22;12832;52.392;13.066;2023-04-01T23:45:49;25.50;36.90
24730;DHT22;12832;52.392;13.066;2023-04-01T23:48:16;25.50;36.90
24730;DHT22;12832;52.392;13.066;2023-04-01T23:50:45;25.50;36.90
24730;DHT22;12832;52.392;13.066;2023-04-01T23:53:18;25.50;36.90
24730;DHT22;12832;52.392;13.066;2023-04-01T23:55:45;25.50;36.90